Flight Track Log - Related Links

Times and Time Zones

All times are in EDT time to prevent confusion due to time zone crossing. See the KAP46 flight status page for this flight to view local times or setup timezone preferences in your user account.

Time Position Orientation Groundspeed Altitude Reporting Facility
EDT Latitude Longitude Course Direction KTS MPH feet Rate Location/Type
Sun 09:25:06 AM 44.7736 -74.8497 180° South 150 173 5,500  Level Boston Center
Sun 09:26:06 AM 44.7303 -74.8361 167° South 140 161 6,200 650 Climbing Boston Center
Sun 09:27:06 AM 44.6953 -74.8083 151° Southeast 140 161 6,800 400 Climbing Boston Center
Sun 09:28:00 AM 44.7781 -74.8667 180° South  Level FlightAware Approximate
Sun 09:28:06 AM 44.6539 -74.7950 167° South 146 168 7,000  Level Boston Center
Sun 09:29:06 AM 44.6089 -74.7642 154° Southeast 168 193 7,000  Level Boston Center
Sun 09:30:06 AM 44.5656 -74.7419 160° South 173 199 7,000  Level Boston Center
Sun 09:31:06 AM 44.5200 -74.7169 159° South 173 199 7,000  Level Boston Center
Sun 09:32:06 AM 44.4767 -74.6950 160° South 167 192 7,000  Level Boston Center
Sun 09:33:06 AM 44.4336 -74.6672 155° Southeast 167 192 7,000  Level Boston Center
Sun 09:34:06 AM 44.3881 -74.6508 166° South 167 192 7,000  Level Boston Center
Sun 09:35:06 AM 44.3447 -74.6289 160° South 162 186 7,000  Level Boston Center
Sun 09:36:18 AM 44.3014 -74.6042 158° South 167 192 7,000  Level Boston Center
Sun 09:37:18 AM 44.2478 -74.5761 159° South 167 192 7,000  Level Boston Center
Sun 09:38:18 AM 44.2044 -74.5572 163° South 167 192 7,000  Level Boston Center
Sun 09:39:18 AM 44.1631 -74.5325 157° South 167 192 7,000  Level Boston Center
Sun 09:40:18 AM 44.1197 -74.5108 160° South 167 192 7,000  Level Boston Center
Sun 09:41:19 AM 44.0744 -74.4861 159° South 167 192 7,000  Level Boston Center
Sun 09:42:18 AM 44.0372 -74.4675 160° South 167 192 7,000  Level Boston Center
Sun 09:43:18 AM 43.9878 -74.4397 158° South 167 192 7,000  Level Boston Center
Sun 09:44:18 AM 43.9442 -74.4181 160° South 167 192 7,000 50 Level Boston Center
Sun 09:45:18 AM 43.8967 -74.3936 160° South 167 192 7,100 50 Climbing Boston Center
Sun 09:46:18 AM 43.8556 -74.3692 157° South 167 192 7,100  Level Boston Center
Sun 09:47:18 AM 43.8119 -74.3478 161° South 167 192 7,100  Level Boston Center
Sun 09:48:18 AM 43.7686 -74.3289 163° South 167 192 7,100  Level Boston Center
Sun 09:49:18 AM 43.7253 -74.3047 158° South 167 192 7,100  Level Boston Center
Sun 09:50:18 AM 43.6778 -74.2803 160° South 167 192 7,100  Level Boston Center
Sun 09:51:18 AM 43.6344 -74.2558 158° South 167 192 7,100  Level Boston Center
Sun 09:52:18 AM 43.5908 -74.2347 161° South 167 192 7,100  Level Boston Center
Sun 09:53:18 AM 43.5456 -74.2103 159° South 167 192 7,100 -50 Level Boston Center
Sun 09:54:18 AM 43.5019 -74.1889 160° South 167 192 7,000 -45 Descending Boston Center
Sun 09:55:30 AM 43.4586 -74.1678 161° South 162 186 7,000  Level Boston Center
Sun 09:56:30 AM 43.4069 -74.1406 159° South 167 192 7,000  Level Boston Center
Sun 09:57:30 AM 43.3614 -74.1164 159° South 167 192 7,000  Level Boston Center
Sun 09:58:30 AM 43.3242 -74.0983 161° South 167 192 7,000  Level Boston Center
Sun 09:59:03 AM 43.2972 -74.0861 162° South 167 192 7,000 -146 Level Boston Center
Sun 09:59:52 AM 43.2600 -74.0653 158° South 168 193 6,800 -276 Descending Boston Center
Sun 10:00:30 AM 43.2331 -74.0531 162° South 166 191 6,600 -429 Descending Boston Center
Sun 10:01:30 AM 43.1833 -74.0233 156° South 166 191 6,100 -400 Descending Boston Center
Sun 10:02:30 AM 43.1461 -74.0025 158° South 177 204 5,800 -533 Descending Boston Center
Sun 10:03:00 AM 43.1111 -73.9817 157° South 185 213 5,300 -700 Descending Boston Center
Sun 10:03:30 AM 43.0883 -73.9667 154° Southeast 183 211 5,100 -600 Descending Boston Center
Sun 10:04:00 AM 43.0636 -73.9519 156° South 188 216 4,700 -600 Descending Boston Center
Sun 10:04:30 AM 43.0450 -73.9400 155° Southeast 190 219 4,500 -590 Descending Boston Center
Sun 10:05:01 AM 43.0161 -73.9225 156° South 191 220 4,100 -522 Descending Boston Center
Sun 10:06:02 AM 42.9686 -73.8872 151° Southeast 194 223 3,700 -393 Descending Boston Center
Sun 10:07:03 AM 42.9253 -73.8522 149° Southeast 186 214 3,300 -397 Descending Boston Center
Sun 10:08:03 AM 42.8797 -73.8169 150° Southeast 184 212 2,900 -545 Descending Boston Center
Sun 10:09:04 AM 42.8319 -73.8075 172° South 168 193 2,200 -787 Descending Boston Center
Sun 10:10:05 AM 42.7944 -73.8094 182° South 126 145 1,300 -893 Descending Boston Center
Sun 10:11:05 AM 42.7631 -73.8089 179° South 101 116 400 -900 Descending Boston Center
Sun 10:13:00 AM 42.7491 -73.8020 170° South  Level Estimated
Sun 10:20:00 AM 42.7491 -73.8020 170° South  Level Estimated
Sun 10:21:00 AM 42.7491 -73.8020 170° South  Level Estimated

Login

Don't have an account? Register now (free) for customized features, flight alerts, and more!